createdAt,value
2023-02-14T00:00:25.772Z,53.15
2023-02-14T00:02:52.181Z,47.67
2023-02-14T00:05:18.697Z,46.03
2023-02-14T00:07:45.105Z,45.30
2023-02-14T00:10:11.495Z,51.80
2023-02-14T00:12:37.856Z,43.00
2023-02-14T00:15:22.388Z,46.10
2023-02-14T00:17:50.325Z,44.45
2023-02-14T00:20:16.901Z,47.35
2023-02-14T00:22:43.898Z,46.45
2023-02-14T00:25:10.347Z,46.67
2023-02-14T00:27:36.732Z,50.80
2023-02-14T00:30:03.898Z,42.72
2023-02-14T00:32:31.826Z,47.78
2023-02-14T00:34:58.217Z,41.60
2023-02-14T00:37:24.948Z,47.40
2023-02-14T00:39:52.781Z,47.80
2023-02-14T00:42:19.165Z,45.33
2023-02-14T00:44:45.599Z,47.88
2023-02-14T00:47:11.990Z,47.25
2023-02-14T00:49:38.464Z,46.70
2023-02-14T00:52:04.935Z,44.13
2023-02-14T00:54:31.408Z,45.13
2023-02-14T00:56:59.006Z,42.03
2023-02-14T00:59:25.489Z,43.97
2023-02-14T01:01:51.843Z,43.33
2023-02-14T01:04:18.673Z,42.78
2023-02-14T01:06:45.645Z,44.35
2023-02-14T01:09:12.927Z,46.00
2023-02-14T01:11:40.028Z,39.38
2023-02-14T01:14:06.707Z,46.83
2023-02-14T01:16:33.106Z,45.80
2023-02-14T01:19:02.799Z,46.67
2023-02-14T01:21:32.197Z,50.40
2023-02-14T01:24:01.496Z,44.40
2023-02-14T01:26:28.939Z,47.75
2023-02-14T01:28:55.671Z,46.70
2023-02-14T01:31:26.227Z,50.92
2023-02-14T01:33:54.075Z,49.95
2023-02-14T01:36:24.390Z,50.05
2023-02-14T01:38:53.477Z,51.88
2023-02-14T01:41:20.706Z,46.35
2023-02-14T01:43:58.748Z,45.35
2023-02-14T01:46:26.774Z,51.42
2023-02-14T01:48:58.503Z,49.55
2023-02-14T01:51:24.910Z,48.75
2023-02-14T01:53:53.527Z,49.35
2023-02-14T01:56:34.292Z,52.13
2023-02-14T01:59:02.688Z,50.03
2023-02-14T02:01:29.855Z,51.10
2023-02-14T02:04:00.333Z,50.65
2023-02-14T02:06:35.864Z,44.17
2023-02-14T02:09:17.235Z,47.85
2023-02-14T02:11:43.943Z,46.05
2023-02-14T02:14:14.886Z,47.10
2023-02-14T02:17:03.207Z,44.85
2023-02-14T02:20:05.952Z,48.03
2023-02-14T02:22:51.230Z,45.95
2023-02-14T02:25:33.867Z,42.58
2023-02-14T02:28:46.445Z,44.45
2023-02-14T02:31:41.089Z,46.90
2023-02-14T02:34:29.334Z,49.83
2023-02-14T02:37:11.973Z,49.92
2023-02-14T02:40:00.107Z,47.83
2023-02-14T02:42:39.609Z,47.42
2023-02-14T02:45:09.052Z,47.17
2023-02-14T02:47:49.852Z,50.90
2023-02-14T02:50:50.267Z,45.40
2023-02-14T02:53:33.893Z,47.72
2023-02-14T02:56:44.182Z,48.50
2023-02-14T02:59:18.246Z,48.13
2023-02-14T03:02:06.796Z,46.38
2023-02-14T03:04:54.923Z,49.80
2023-02-14T03:07:43.662Z,53.42
2023-02-14T03:10:22.472Z,51.28
2023-02-14T03:13:18.947Z,58.10
2023-02-14T03:16:26.486Z,53.45
2023-02-14T03:19:20.111Z,50.92
2023-02-14T03:22:03.069Z,52.70
2023-02-14T03:24:45.099Z,49.13
2023-02-14T03:27:18.205Z,49.05
2023-02-14T03:30:02.697Z,51.85
2023-02-14T03:32:44.869Z,51.10
2023-02-14T03:35:30.720Z,48.50
2023-02-14T03:38:25.364Z,48.10
2023-02-14T03:41:04.360Z,54.33
2023-02-14T03:43:39.240Z,45.60
2023-02-14T03:46:15.268Z,52.03
2023-02-14T03:48:42.443Z,51.92
2023-02-14T03:51:12.033Z,52.50
2023-02-14T03:53:43.681Z,51.15
2023-02-14T03:56:32.257Z,54.08
2023-02-14T03:59:06.020Z,54.42
2023-02-14T04:01:38.624Z,51.13
2023-02-14T04:04:07.253Z,50.88
2023-02-14T04:06:33.734Z,49.13
2023-02-14T04:09:00.099Z,54.55
2023-02-14T04:11:26.940Z,48.28
2023-02-14T04:13:53.314Z,49.60
2023-02-14T04:16:19.818Z,53.28
2023-02-14T04:19:04.686Z,50.75
2023-02-14T04:21:31.033Z,50.03
2023-02-14T04:23:57.427Z,51.85
2023-02-14T04:26:23.814Z,54.42
2023-02-14T04:28:50.185Z,52.67
2023-02-14T04:31:17.392Z,47.80
2023-02-14T04:33:45.885Z,52.72
2023-02-14T04:36:15.605Z,55.47
2023-02-14T04:38:41.946Z,53.72
2023-02-14T04:41:08.332Z,63.08
2023-02-14T04:43:34.718Z,52.53
2023-02-14T04:46:01.077Z,54.30
2023-02-14T04:48:27.412Z,53.47
2023-02-14T04:50:55.125Z,55.50
2023-02-14T04:53:22.040Z,56.15
2023-02-14T04:55:49.869Z,49.90
2023-02-14T04:58:16.293Z,56.00
2023-02-14T05:00:42.782Z,58.05
2023-02-14T05:03:09.202Z,55.47
2023-02-14T05:05:35.565Z,57.53
2023-02-14T05:08:02.344Z,59.15
2023-02-14T05:10:29.109Z,54.83
2023-02-14T05:12:55.512Z,58.30
2023-02-14T05:15:21.858Z,55.42
2023-02-14T05:17:48.220Z,56.03
2023-02-14T05:20:14.590Z,57.63
2023-02-14T05:22:40.983Z,56.75
2023-02-14T05:25:08.826Z,52.58
2023-02-14T05:27:35.181Z,55.05
2023-02-14T05:30:02.331Z,55.63
2023-02-14T05:32:28.703Z,53.92
2023-02-14T05:34:55.156Z,57.92
2023-02-14T05:37:21.512Z,57.38
2023-02-14T05:39:47.896Z,55.45
2023-02-14T05:42:14.394Z,57.72
2023-02-14T05:44:40.816Z,56.30
2023-02-14T05:47:07.158Z,56.58
2023-02-14T05:49:35.029Z,57.67
2023-02-14T05:52:02.197Z,55.80
2023-02-14T05:54:28.546Z,52.67
2023-02-14T05:56:54.905Z,52.63
2023-02-14T05:59:21.311Z,54.45
2023-02-14T06:01:47.689Z,53.05
2023-02-14T06:04:14.072Z,57.67
2023-02-14T06:06:40.541Z,60.10
2023-02-14T06:09:07.032Z,55.72
2023-02-14T06:11:34.496Z,57.83
2023-02-14T06:14:00.847Z,54.22
2023-02-14T06:16:27.199Z,54.00
2023-02-14T06:18:53.589Z,54.20
2023-02-14T06:21:20.028Z,61.17
2023-02-14T06:23:46.390Z,55.72
2023-02-14T06:26:12.780Z,54.47
2023-02-14T06:28:39.511Z,54.88
2023-02-14T06:31:06.010Z,57.42
2023-02-14T06:33:32.632Z,54.67
2023-02-14T06:35:59.089Z,54.38
2023-02-14T06:38:29.389Z,57.05
2023-02-14T06:41:02.415Z,56.35
2023-02-14T06:43:28.984Z,58.67
2023-02-14T06:45:55.386Z,58.80
2023-02-14T06:48:21.914Z,54.10
2023-02-14T06:50:48.285Z,61.67
2023-02-14T06:53:14.728Z,55.58
2023-02-14T06:55:42.962Z,54.78
2023-02-14T06:58:10.631Z,58.70
2023-02-14T07:00:37.029Z,62.80
2023-02-14T07:03:03.526Z,56.75
2023-02-14T07:05:29.964Z,59.08
2023-02-14T07:07:56.355Z,56.03
2023-02-14T07:10:23.046Z,57.05
2023-02-14T07:12:49.419Z,53.60
2023-02-14T07:15:16.412Z,56.22
2023-02-14T07:17:42.981Z,55.17
2023-02-14T07:20:10.602Z,55.85
2023-02-14T07:22:38.018Z,59.60
2023-02-14T07:25:06.161Z,52.08
2023-02-14T07:27:33.229Z,54.33
2023-02-14T07:29:59.629Z,56.75
2023-02-14T07:32:26.205Z,50.88
2023-02-14T07:34:52.738Z,51.50
2023-02-14T07:37:19.320Z,56.30
2023-02-14T07:39:45.942Z,54.13
2023-02-14T07:42:12.555Z,59.00
2023-02-14T07:44:39.342Z,52.05
2023-02-14T07:47:07.200Z,50.30
2023-02-14T07:49:33.916Z,48.85
2023-02-14T07:52:00.621Z,50.78
2023-02-14T07:54:27.465Z,47.15
2023-02-14T07:56:53.914Z,46.63
2023-02-14T07:59:20.487Z,50.22
2023-02-14T08:01:46.975Z,46.80
2023-02-14T08:04:13.834Z,47.58
2023-02-14T08:06:41.393Z,48.60
2023-02-14T08:09:09.965Z,51.03
2023-02-14T08:11:56.289Z,50.92
2023-02-14T08:14:23.152Z,43.15
2023-02-14T08:16:49.603Z,42.65
2023-02-14T08:19:15.982Z,41.95
2023-02-14T08:21:42.356Z,43.28
2023-02-14T08:24:08.774Z,46.08
2023-02-14T08:26:35.124Z,44.58
2023-02-14T08:29:02.569Z,44.25
2023-02-14T08:31:35.577Z,44.85
2023-02-14T08:34:03.168Z,46.17
2023-02-14T08:36:29.541Z,47.38
2023-02-14T08:38:57.539Z,42.20
2023-02-14T08:41:24.028Z,48.70
2023-02-14T08:43:50.822Z,43.67
2023-02-14T08:46:17.226Z,40.63
2023-02-14T08:48:44.233Z,43.83
2023-02-14T08:51:13.321Z,42.03
2023-02-14T08:53:40.777Z,43.38
2023-02-14T08:56:12.654Z,46.78
2023-02-14T08:58:39.883Z,41.38
2023-02-14T09:01:15.160Z,44.65
2023-02-14T09:03:41.892Z,35.67
2023-02-14T09:06:11.223Z,40.80
2023-02-14T09:08:38.988Z,44.40
2023-02-14T09:11:16.013Z,40.05
2023-02-14T09:13:42.947Z,44.55
2023-02-14T09:16:11.529Z,34.22
2023-02-14T09:18:38.781Z,34.85
2023-02-14T09:21:11.286Z,42.67
2023-02-14T09:23:38.760Z,36.83
2023-02-14T09:26:07.591Z,38.95
2023-02-14T09:28:34.913Z,44.25
2023-02-14T09:31:11.095Z,38.65
2023-02-14T09:33:37.676Z,39.33
2023-02-14T09:36:22.824Z,35.53
2023-02-14T09:38:49.269Z,37.83
2023-02-14T09:41:31.104Z,44.08
2023-02-14T09:44:29.996Z,35.70
2023-02-14T09:47:01.437Z,40.30
2023-02-14T09:49:32.800Z,42.78
2023-02-14T09:52:01.954Z,41.38
2023-02-14T09:54:29.991Z,39.38
2023-02-14T09:57:03.733Z,36.78
2023-02-14T09:59:43.122Z,37.97
2023-02-14T10:02:33.975Z,36.25
2023-02-14T10:05:12.896Z,39.92
2023-02-14T10:08:02.207Z,39.28
2023-02-14T10:10:33.580Z,36.33
2023-02-14T10:13:07.484Z,35.22
2023-02-14T10:15:41.419Z,37.55
2023-02-14T10:18:17.904Z,34.00
2023-02-14T10:20:52.310Z,35.72
2023-02-14T10:23:37.569Z,33.63
2023-02-14T10:26:07.868Z,38.13
2023-02-14T10:28:46.307Z,34.58
2023-02-14T10:31:19.411Z,31.60
2023-02-14T10:33:52.538Z,31.63
2023-02-14T10:36:37.851Z,30.42
2023-02-14T10:39:22.423Z,31.25
2023-02-14T10:42:33.283Z,35.47
2023-02-14T10:45:23.773Z,26.80
2023-02-14T10:48:05.275Z,25.70
2023-02-14T10:51:16.816Z,28.45
2023-02-14T10:54:21.980Z,26.02
2023-02-14T10:57:03.849Z,27.02
2023-02-14T10:59:33.116Z,26.08
2023-02-14T11:02:00.797Z,28.65
2023-02-14T11:04:31.253Z,31.48
2023-02-14T11:06:57.720Z,26.92
2023-02-14T11:09:24.457Z,25.30
2023-02-14T11:11:56.048Z,28.65
2023-02-14T11:14:35.797Z,27.10
2023-02-14T11:17:30.649Z,27.08
2023-02-14T11:20:02.548Z,27.45
2023-02-14T11:22:34.244Z,25.73
2023-02-14T11:25:18.380Z,28.98
2023-02-14T11:27:50.182Z,28.63
2023-02-14T11:30:24.888Z,29.65
2023-02-14T11:32:56.258Z,24.45
2023-02-14T11:35:27.501Z,28.55
2023-02-14T11:37:57.871Z,26.88
2023-02-14T11:40:38.229Z,25.90
2023-02-14T11:43:14.293Z,26.85
2023-02-14T11:45:46.548Z,26.95
2023-02-14T11:48:37.315Z,29.42
2023-02-14T11:51:09.133Z,27.27
2023-02-14T11:53:45.762Z,26.92
2023-02-14T11:56:13.267Z,28.10
2023-02-14T11:58:59.602Z,24.00
2023-02-14T12:01:29.766Z,24.75
2023-02-14T12:04:01.604Z,22.85
2023-02-14T12:06:31.156Z,20.73
2023-02-14T12:09:22.336Z,24.95
2023-02-14T12:11:59.736Z,22.77
2023-02-14T12:14:31.456Z,23.85
2023-02-14T12:17:18.741Z,23.58
2023-02-14T12:20:03.253Z,20.40
2023-02-14T12:22:35.353Z,24.60
2023-02-14T12:25:16.399Z,21.33
2023-02-14T12:27:50.792Z,20.52
2023-02-14T12:30:25.049Z,23.15
2023-02-14T12:32:53.983Z,21.67
2023-02-14T12:35:47.620Z,21.60
2023-02-14T12:38:41.089Z,21.30
2023-02-14T12:41:26.256Z,21.77
2023-02-14T12:44:07.362Z,24.20
2023-02-14T12:47:16.579Z,24.42
2023-02-14T12:50:02.833Z,22.20
2023-02-14T12:53:08.638Z,21.70
2023-02-14T12:55:58.544Z,24.23
2023-02-14T12:58:56.674Z,22.85
2023-02-14T13:01:46.503Z,26.60
2023-02-14T13:04:40.633Z,22.88
2023-02-14T13:07:28.801Z,24.52
2023-02-14T13:10:19.093Z,32.30
2023-02-14T13:12:52.602Z,27.80
2023-02-14T13:15:29.693Z,26.25
2023-02-14T13:18:10.141Z,25.85
2023-02-14T13:20:59.035Z,25.17
2023-02-14T13:23:27.581Z,27.48
2023-02-14T13:26:03.920Z,23.85
2023-02-14T13:28:31.676Z,25.90
2023-02-14T13:30:59.910Z,31.10
2023-02-14T13:33:36.372Z,26.20
2023-02-14T13:36:08.683Z,28.45
2023-02-14T13:38:48.822Z,27.95
2023-02-14T13:41:17.143Z,25.67
2023-02-14T13:43:48.775Z,28.90
2023-02-14T13:46:22.568Z,28.33
2023-02-14T13:48:58.428Z,28.40
2023-02-14T13:51:48.892Z,27.00
2023-02-14T13:54:40.353Z,27.80
2023-02-14T13:57:33.998Z,29.65
2023-02-14T14:00:18.942Z,29.55
2023-02-14T14:02:52.969Z,31.73
2023-02-14T14:05:39.482Z,28.70
2023-02-14T14:08:20.889Z,32.95
2023-02-14T14:10:50.669Z,34.28
2023-02-14T14:13:42.002Z,33.10
2023-02-14T14:16:24.053Z,32.38
2023-02-14T14:18:52.304Z,28.73
2023-02-14T14:21:34.575Z,30.95
2023-02-14T14:24:16.639Z,32.28
2023-02-14T14:26:46.725Z,31.00
2023-02-14T14:29:18.299Z,29.40
2023-02-14T14:31:46.643Z,34.08
2023-02-14T14:34:20.277Z,31.40
2023-02-14T14:36:47.365Z,33.22
2023-02-14T14:39:26.536Z,30.42
2023-02-14T14:41:52.923Z,32.08
2023-02-14T14:44:19.582Z,31.88
2023-02-14T14:46:46.722Z,34.95
2023-02-14T14:49:15.884Z,31.00
2023-02-14T14:51:42.651Z,35.75
2023-02-14T14:54:11.949Z,30.23
2023-02-14T14:56:52.716Z,31.42
2023-02-14T14:59:28.332Z,34.15
2023-02-14T15:01:54.832Z,34.95
2023-02-14T15:04:35.120Z,32.90
2023-02-14T15:07:28.205Z,33.03
2023-02-14T15:09:54.575Z,32.75
2023-02-14T15:12:41.931Z,34.78
2023-02-14T15:15:12.264Z,36.38
2023-02-14T15:17:40.809Z,31.77
2023-02-14T15:20:11.252Z,31.48
2023-02-14T15:22:42.065Z,34.75
2023-02-14T15:25:18.106Z,32.83
2023-02-14T15:27:44.921Z,34.15
2023-02-14T15:30:20.642Z,32.58
2023-02-14T15:32:49.298Z,31.10
2023-02-14T15:35:18.381Z,38.08
2023-02-14T15:37:46.707Z,30.27
2023-02-14T15:40:22.581Z,32.15
2023-02-14T15:42:55.964Z,32.13
2023-02-14T15:45:36.924Z,34.88
2023-02-14T15:48:20.232Z,34.47
2023-02-14T15:50:55.890Z,32.10
2023-02-14T15:53:44.217Z,36.83
2023-02-14T15:56:31.435Z,33.00
2023-02-14T15:59:07.094Z,33.20
2023-02-14T16:01:35.596Z,35.05
2023-02-14T16:04:05.005Z,33.70
2023-02-14T16:06:38.414Z,32.42
2023-02-14T16:09:07.749Z,33.03
2023-02-14T16:11:36.998Z,33.00
2023-02-14T16:14:46.407Z,30.08
2023-02-14T16:17:14.361Z,35.30
2023-02-14T16:19:43.370Z,34.92
2023-02-14T16:22:23.737Z,33.60
2023-02-14T16:24:50.092Z,33.65
2023-02-14T16:27:17.160Z,37.67
2023-02-14T16:29:43.497Z,30.95
2023-02-14T16:32:20.047Z,33.03
2023-02-14T16:34:47.391Z,29.40
2023-02-14T16:37:24.842Z,34.78
2023-02-14T16:39:54.001Z,32.42
2023-02-14T16:42:23.621Z,30.80
2023-02-14T16:44:50.499Z,32.47
2023-02-14T16:47:19.562Z,30.50
2023-02-14T16:49:46.716Z,31.02
2023-02-14T16:52:16.565Z,32.85
2023-02-14T16:54:43.453Z,35.33
2023-02-14T16:57:23.594Z,36.00
2023-02-14T16:59:50.987Z,34.42
2023-02-14T17:02:18.993Z,33.45
2023-02-14T17:04:45.562Z,36.47
2023-02-14T17:07:14.376Z,34.15
2023-02-14T17:09:45.432Z,34.33
2023-02-14T17:12:16.921Z,35.05
2023-02-14T17:14:48.732Z,35.42
2023-02-14T17:17:15.713Z,35.55
2023-02-14T17:19:42.811Z,33.65
2023-02-14T17:22:10.030Z,35.40
2023-02-14T17:24:36.398Z,32.75
2023-02-14T17:27:02.754Z,35.58
2023-02-14T17:29:29.146Z,35.63
2023-02-14T17:31:55.628Z,33.25
2023-02-14T17:34:22.056Z,34.13
2023-02-14T17:36:48.540Z,37.47
2023-02-14T17:39:19.834Z,40.33
2023-02-14T17:41:46.576Z,35.63
2023-02-14T17:44:13.236Z,34.78
2023-02-14T17:46:39.644Z,34.50
2023-02-14T17:49:06.639Z,35.60
2023-02-14T17:51:36.496Z,36.92
2023-02-14T17:54:02.891Z,38.05
2023-02-14T17:56:29.492Z,38.60
2023-02-14T17:58:56.107Z,35.55
2023-02-14T18:01:26.553Z,36.83
2023-02-14T18:03:55.314Z,42.38
2023-02-14T18:06:22.751Z,38.80
2023-02-14T18:08:53.193Z,38.38
2023-02-14T18:11:20.914Z,37.60
2023-02-14T18:13:47.814Z,37.85
2023-02-14T18:16:17.118Z,38.22
2023-02-14T18:18:43.750Z,42.15
2023-02-14T18:21:12.284Z,39.00
2023-02-14T18:23:39.125Z,38.75
2023-02-14T18:26:08.203Z,36.25
2023-02-14T18:28:35.438Z,37.90
2023-02-14T18:31:04.361Z,36.20
2023-02-14T18:33:30.772Z,43.58
2023-02-14T18:35:57.203Z,39.72
2023-02-14T18:38:23.599Z,44.85
2023-02-14T18:40:50.046Z,39.08
2023-02-14T18:43:16.630Z,40.75
2023-02-14T18:45:42.998Z,46.22
2023-02-14T18:48:09.383Z,40.53
2023-02-14T18:50:36.190Z,36.63
2023-02-14T18:53:02.546Z,40.28
2023-02-14T18:55:28.896Z,38.10
2023-02-14T18:57:55.271Z,36.88
2023-02-14T19:00:22.076Z,43.72
2023-02-14T19:02:48.439Z,42.40
2023-02-14T19:05:14.800Z,39.30
2023-02-14T19:07:41.184Z,37.67
2023-02-14T19:10:08.338Z,41.83
2023-02-14T19:12:34.981Z,42.38
2023-02-14T19:15:01.606Z,39.20
2023-02-14T19:17:28.041Z,41.13
2023-02-14T19:19:55.290Z,40.80
2023-02-14T19:22:22.449Z,42.08
2023-02-14T19:24:49.245Z,42.03
2023-02-14T19:27:16.537Z,40.90
2023-02-14T19:29:42.894Z,42.95
2023-02-14T19:32:09.375Z,39.53
2023-02-14T19:34:36.217Z,42.08
2023-02-14T19:37:03.502Z,43.20
2023-02-14T19:39:30.740Z,41.42
2023-02-14T19:41:58.042Z,45.92
2023-02-14T19:44:25.824Z,43.40
2023-02-14T19:46:56.390Z,49.80
2023-02-14T19:49:22.895Z,48.80
2023-02-14T19:51:51.322Z,46.85
2023-02-14T19:54:18.600Z,46.67
2023-02-14T19:56:47.956Z,45.13
2023-02-14T19:59:22.847Z,49.63
2023-02-14T20:01:53.734Z,49.20
2023-02-14T20:04:25.347Z,51.97
2023-02-14T20:06:52.623Z,53.50
2023-02-14T20:09:21.715Z,53.03
2023-02-14T20:11:51.857Z,62.15
2023-02-14T20:14:23.580Z,59.45
2023-02-14T20:16:50.823Z,64.55
2023-02-14T20:19:19.929Z,58.63
2023-02-14T20:21:49.157Z,53.25
2023-02-14T20:24:20.079Z,55.58
2023-02-14T20:26:47.838Z,51.55
2023-02-14T20:29:15.104Z,53.97
2023-02-14T20:31:45.018Z,49.53
2023-02-14T20:34:12.362Z,56.80
2023-02-14T20:36:39.652Z,58.03
2023-02-14T20:39:07.820Z,53.53
2023-02-14T20:41:35.211Z,55.20
2023-02-14T20:44:07.377Z,52.97
2023-02-14T20:46:34.591Z,59.05
2023-02-14T20:49:01.858Z,51.22
2023-02-14T20:51:29.006Z,51.95
2023-02-14T20:53:55.409Z,58.20
2023-02-14T20:56:25.549Z,55.95
2023-02-14T20:58:51.894Z,57.30
2023-02-14T21:01:21.918Z,61.17
2023-02-14T21:03:50.822Z,57.10
2023-02-14T21:06:18.872Z,60.22
2023-02-14T21:08:45.313Z,59.92
2023-02-14T21:11:14.226Z,68.10
2023-02-14T21:13:40.730Z,58.78
2023-02-14T21:16:15.423Z,59.78
2023-02-14T21:18:47.698Z,56.53
2023-02-14T21:21:21.749Z,59.28
2023-02-14T21:23:49.468Z,58.90
2023-02-14T21:26:17.187Z,54.10
2023-02-14T21:28:43.746Z,55.10
2023-02-14T21:31:12.509Z,55.05
2023-02-14T21:33:39.306Z,59.50
2023-02-14T21:36:25.859Z,56.38
2023-02-14T21:38:54.891Z,57.78
2023-02-14T21:41:23.442Z,63.03
2023-02-14T21:43:55.707Z,59.92
2023-02-14T21:46:29.164Z,58.70
2023-02-14T21:49:14.428Z,57.25
2023-02-14T21:51:41.256Z,54.75
2023-02-14T21:54:08.309Z,54.22
2023-02-14T21:56:36.033Z,56.42
2023-02-14T21:59:02.480Z,58.38
2023-02-14T22:01:33.097Z,55.13
2023-02-14T22:04:00.712Z,55.70
2023-02-14T22:06:28.041Z,59.60
2023-02-14T22:08:59.310Z,63.83
2023-02-14T22:11:28.488Z,57.80
2023-02-14T22:13:56.274Z,59.15
2023-02-14T22:16:24.052Z,58.95
2023-02-14T22:18:50.983Z,61.60
2023-02-14T22:21:20.706Z,55.55
2023-02-14T22:23:47.644Z,63.53
2023-02-14T22:26:17.742Z,58.03
2023-02-14T22:28:46.175Z,58.47
2023-02-14T22:31:14.195Z,56.35
2023-02-14T22:33:40.766Z,59.88
2023-02-14T22:36:08.179Z,62.15
2023-02-14T22:38:35.274Z,62.67
2023-02-14T22:41:16.785Z,66.80
2023-02-14T22:43:44.049Z,80.70
2023-02-14T22:46:19.827Z,72.22
2023-02-14T22:48:47.915Z,73.20
2023-02-14T22:51:37.925Z,71.22
2023-02-14T22:54:08.105Z,83.40
2023-02-14T22:56:40.283Z,113.32
2023-02-14T22:59:12.769Z,73.90
2023-02-14T23:01:39.434Z,69.18
2023-02-14T23:04:06.430Z,81.30
2023-02-14T23:06:35.274Z,80.63
2023-02-14T23:09:04.300Z,82.97
2023-02-14T23:11:32.871Z,104.32
2023-02-14T23:14:18.384Z,69.32
2023-02-14T23:17:03.794Z,64.43
2023-02-14T23:19:51.800Z,206.02
2023-02-14T23:22:22.036Z,69.50
2023-02-14T23:24:50.025Z,98.85
2023-02-14T23:27:23.627Z,79.38
2023-02-14T23:29:50.146Z,75.47
2023-02-14T23:32:17.082Z,73.30
2023-02-14T23:34:44.557Z,72.00
2023-02-14T23:37:13.530Z,69.97
2023-02-14T23:39:39.985Z,194.05
2023-02-14T23:42:11.567Z,135.48
2023-02-14T23:44:38.065Z,218.68
2023-02-14T23:47:06.714Z,122.28
2023-02-14T23:49:35.174Z,198.90
2023-02-14T23:52:02.433Z,93.20
2023-02-14T23:54:28.960Z,82.18
2023-02-14T23:56:55.363Z,74.80
2023-02-14T23:59:22.162Z,255.40
